Centerville, South Dakota
Current Conditions -  °F | °C
As of 6:15 AM on Tuesday 27 Jan 2015 (Local Time) from KYKN Reporting Station
Clear Clear  
Wind Chill: 27°   Ceiling: Unl
Heat Index: 27°   Visibility: 3mi
Dew Point: 25°   Wind: 3mph
Humidity: 93%   Direction: 90°E
Pressure: 30.07"   Gusts: NA
Location:  43.12°N, 96.96°W
Report Text: KYKN 271215Z AUTO 09003KT 3SM CLR M03/M04 A3007 RMK AO1
Loading
Personal Weather Stations






























Interactive Weather Map New forecast layout! Learn more

10-Day Weather Forecast

Advertisements
Track Severe Weather on mobile